createdAt,value
2022-12-10T00:01:09.438Z,63.00
2022-12-10T00:03:36.769Z,63.80
2022-12-10T00:06:05.760Z,63.20
2022-12-10T00:08:32.655Z,63.10
2022-12-10T00:10:59.473Z,63.00
2022-12-10T00:13:26.314Z,63.00
2022-12-10T00:15:53.139Z,62.90
2022-12-10T00:18:19.954Z,62.90
2022-12-10T00:20:46.958Z,62.90
2022-12-10T00:23:17.523Z,62.80
2022-12-10T00:25:46.972Z,62.80
2022-12-10T00:28:14.190Z,62.60
2022-12-10T00:30:41.082Z,63.40
2022-12-10T00:33:08.007Z,62.70
2022-12-10T00:35:38.033Z,62.60
2022-12-10T00:38:05.002Z,62.70
2022-12-10T00:40:31.884Z,62.60
2022-12-10T00:42:58.753Z,62.80
2022-12-10T00:45:25.559Z,63.00
2022-12-10T00:47:52.498Z,62.90
2022-12-10T00:50:19.357Z,62.90
2022-12-10T00:52:46.855Z,62.90
2022-12-10T00:55:13.719Z,62.90
2022-12-10T00:57:40.527Z,62.80
2022-12-10T01:00:08.393Z,62.80
2022-12-10T01:02:35.557Z,62.70
2022-12-10T01:05:02.438Z,62.80
2022-12-10T01:07:29.274Z,62.70
2022-12-10T01:09:56.333Z,62.40
2022-12-10T01:12:23.286Z,62.30
2022-12-10T01:14:50.072Z,62.30
2022-12-10T01:17:16.995Z,62.30
2022-12-10T01:19:43.911Z,62.20
2022-12-10T01:22:10.789Z,62.20
2022-12-10T01:24:37.621Z,62.30
2022-12-10T01:27:04.888Z,62.30
2022-12-10T01:29:31.802Z,62.40
2022-12-10T01:31:59.021Z,62.30
2022-12-10T01:34:26.435Z,62.20
2022-12-10T01:36:54.920Z,62.30
2022-12-10T01:39:23.338Z,62.30
2022-12-10T01:41:56.363Z,62.50
2022-12-10T01:44:23.136Z,62.40
2022-12-10T01:46:55.616Z,62.70
2022-12-10T01:49:36.241Z,62.60
2022-12-10T01:52:04.626Z,62.60
2022-12-10T01:54:37.930Z,62.80
2022-12-10T01:57:23.700Z,62.80
2022-12-10T01:59:55.383Z,62.90
2022-12-10T02:02:36.764Z,62.80
2022-12-10T02:05:06.889Z,62.70
2022-12-10T02:07:54.430Z,62.70
2022-12-10T02:10:30.864Z,62.70
2022-12-10T02:13:06.834Z,62.70
2022-12-10T02:15:49.022Z,62.60
2022-12-10T02:18:25.145Z,62.70
2022-12-10T02:20:58.240Z,62.70
2022-12-10T02:23:42.673Z,62.60
2022-12-10T02:26:20.194Z,62.60
2022-12-10T02:29:13.529Z,62.60
2022-12-10T02:31:47.753Z,62.60
2022-12-10T02:34:17.412Z,62.60
2022-12-10T02:36:47.040Z,62.50
2022-12-10T02:39:25.820Z,62.50
2022-12-10T02:41:55.470Z,62.50
2022-12-10T02:44:25.190Z,62.40
2022-12-10T02:46:56.302Z,62.30
2022-12-10T02:49:24.763Z,62.40
2022-12-10T02:51:51.591Z,62.40
2022-12-10T02:54:46.532Z,62.40
2022-12-10T02:57:28.203Z,62.40
2022-12-10T03:00:10.890Z,62.40
2022-12-10T03:02:40.757Z,62.50
2022-12-10T03:05:19.744Z,62.50
2022-12-10T03:08:04.367Z,62.60
2022-12-10T03:10:40.676Z,62.60
2022-12-10T03:13:12.332Z,62.60
2022-12-10T03:15:42.289Z,62.60
2022-12-10T03:18:11.841Z,62.70
2022-12-10T03:20:43.925Z,62.60
2022-12-10T03:23:14.800Z,62.70
2022-12-10T03:25:42.212Z,62.60
2022-12-10T03:28:10.069Z,62.70
2022-12-10T03:30:39.399Z,62.70
2022-12-10T03:33:06.779Z,62.60
2022-12-10T03:35:34.406Z,62.60
2022-12-10T03:38:02.184Z,62.80
2022-12-10T03:40:29.547Z,62.80
2022-12-10T03:42:56.457Z,62.60
2022-12-10T03:45:23.380Z,62.50
2022-12-10T03:47:50.484Z,62.30
2022-12-10T03:50:17.671Z,62.50
2022-12-10T03:52:44.663Z,62.50
2022-12-10T03:55:12.076Z,62.60
2022-12-10T03:57:39.103Z,62.70
2022-12-10T04:00:07.926Z,62.80
2022-12-10T04:02:35.322Z,62.80
2022-12-10T04:05:02.183Z,62.80
2022-12-10T04:07:29.015Z,62.90
2022-12-10T04:09:55.831Z,62.90
2022-12-10T04:12:22.691Z,63.00
2022-12-10T04:15:08.367Z,63.00
2022-12-10T04:17:35.553Z,62.90
2022-12-10T04:20:02.827Z,63.00
2022-12-10T04:22:48.738Z,63.10
2022-12-10T04:25:34.031Z,63.00
2022-12-10T04:28:00.906Z,63.10
2022-12-10T04:30:27.796Z,63.20
2022-12-10T04:32:54.723Z,63.30
2022-12-10T04:35:21.687Z,63.30
2022-12-10T04:37:48.621Z,63.30
2022-12-10T04:40:15.703Z,63.20
2022-12-10T04:42:42.535Z,63.20
2022-12-10T04:45:09.855Z,63.10
2022-12-10T04:47:36.968Z,63.20
2022-12-10T04:50:04.375Z,63.20
2022-12-10T04:52:31.167Z,63.20
2022-12-10T04:54:58.034Z,63.30
2022-12-10T04:57:27.275Z,63.20
2022-12-10T04:59:54.118Z,63.20
2022-12-10T05:02:21.181Z,63.20
2022-12-10T05:04:50.033Z,62.90
2022-12-10T05:07:17.028Z,63.10
2022-12-10T05:09:43.927Z,63.00
2022-12-10T05:12:10.869Z,63.00
2022-12-10T05:14:37.987Z,63.10
2022-12-10T05:17:04.944Z,63.20
2022-12-10T05:19:31.802Z,63.10
2022-12-10T05:22:17.226Z,64.10
2022-12-10T05:24:44.193Z,63.20
2022-12-10T05:27:11.097Z,63.20
2022-12-10T05:29:38.032Z,63.10
2022-12-10T05:32:05.643Z,63.10
2022-12-10T05:34:32.599Z,63.10
2022-12-10T05:36:59.582Z,63.10
2022-12-10T05:39:26.353Z,63.10
2022-12-10T05:41:53.225Z,63.10
2022-12-10T05:44:20.009Z,63.10
2022-12-10T05:46:47.056Z,63.20
2022-12-10T05:49:14.096Z,63.10
2022-12-10T05:51:40.978Z,63.10
2022-12-10T05:54:08.336Z,63.00
2022-12-10T05:56:36.440Z,63.20
2022-12-10T05:59:04.210Z,63.20
2022-12-10T06:01:34.290Z,63.40
2022-12-10T06:04:03.878Z,63.30
2022-12-10T06:06:33.054Z,63.30
2022-12-10T06:09:00.265Z,63.40
2022-12-10T06:11:28.492Z,63.20
2022-12-10T06:13:57.998Z,63.50
2022-12-10T06:16:26.371Z,63.50
2022-12-10T06:18:53.892Z,63.60
2022-12-10T06:21:22.065Z,63.50
2022-12-10T06:23:54.718Z,63.40
2022-12-10T06:26:24.670Z,63.70
2022-12-10T06:28:51.938Z,63.80
2022-12-10T06:31:19.097Z,63.80
2022-12-10T06:33:46.586Z,63.90
2022-12-10T06:36:15.884Z,63.90
2022-12-10T06:38:43.152Z,63.90
2022-12-10T06:41:14.447Z,63.90
2022-12-10T06:43:41.363Z,63.70
2022-12-10T06:46:11.966Z,63.70
2022-12-10T06:48:39.205Z,63.90
2022-12-10T06:51:06.560Z,64.00
2022-12-10T06:53:34.730Z,63.90
2022-12-10T06:56:03.131Z,64.00
2022-12-10T06:58:31.534Z,64.00
2022-12-10T07:01:10.339Z,64.00
2022-12-10T07:03:37.991Z,63.90
2022-12-10T07:06:13.263Z,63.80
2022-12-10T07:08:40.292Z,63.90
2022-12-10T07:11:08.902Z,63.80
2022-12-10T07:13:36.498Z,63.70
2022-12-10T07:16:04.618Z,63.80
2022-12-10T07:18:31.504Z,63.80
2022-12-10T07:20:58.354Z,63.80
2022-12-10T07:23:25.302Z,63.80
2022-12-10T07:25:55.547Z,63.70
2022-12-10T07:28:22.441Z,63.60
2022-12-10T07:30:49.612Z,63.60
2022-12-10T07:33:16.446Z,63.60
2022-12-10T07:35:48.853Z,63.70
2022-12-10T07:38:16.594Z,63.80
2022-12-10T07:40:43.411Z,63.80
2022-12-10T07:43:10.183Z,63.80
2022-12-10T07:45:37.023Z,63.80
2022-12-10T07:48:04.049Z,63.50
2022-12-10T07:50:31.107Z,63.70
2022-12-10T07:52:58.242Z,63.80
2022-12-10T07:55:25.151Z,63.90
2022-12-10T07:57:52.042Z,64.00
2022-12-10T08:00:19.151Z,64.10
2022-12-10T08:02:45.996Z,64.10
2022-12-10T08:05:12.922Z,64.10
2022-12-10T08:07:39.842Z,64.00
2022-12-10T08:10:07.259Z,63.90
2022-12-10T08:12:34.402Z,64.00
2022-12-10T08:15:03.355Z,64.00
2022-12-10T08:17:30.178Z,64.00
2022-12-10T08:19:57.133Z,63.90
2022-12-10T08:22:24.003Z,63.90
2022-12-10T08:24:50.857Z,63.90
2022-12-10T08:27:17.754Z,63.90
2022-12-10T08:29:44.726Z,64.10
2022-12-10T08:32:11.628Z,64.10
2022-12-10T08:34:38.607Z,64.10
2022-12-10T08:37:10.640Z,64.10
2022-12-10T08:39:39.056Z,63.90
2022-12-10T08:42:05.975Z,64.00
2022-12-10T08:44:32.801Z,64.10
2022-12-10T08:46:59.732Z,64.10
2022-12-10T08:49:26.585Z,64.00
2022-12-10T08:51:53.480Z,64.00
2022-12-10T08:54:20.310Z,64.10
2022-12-10T08:56:47.146Z,64.00
2022-12-10T08:59:14.289Z,64.00
2022-12-10T09:01:41.204Z,64.00
2022-12-10T09:04:08.846Z,64.00
2022-12-10T09:06:35.936Z,63.90
2022-12-10T09:09:03.036Z,63.90
2022-12-10T09:11:35.396Z,64.00
2022-12-10T09:14:03.118Z,63.90
2022-12-10T09:16:32.656Z,63.80
2022-12-10T09:19:00.205Z,63.80
2022-12-10T09:21:27.230Z,63.70
2022-12-10T09:23:54.126Z,63.40
2022-12-10T09:26:21.488Z,63.50
2022-12-10T09:28:48.820Z,63.50
2022-12-10T09:31:19.712Z,63.60
2022-12-10T09:33:49.246Z,63.70
2022-12-10T09:36:16.497Z,63.70
2022-12-10T09:38:45.454Z,63.70
2022-12-10T09:41:23.522Z,63.70
2022-12-10T09:44:08.389Z,63.70
2022-12-10T09:46:58.937Z,63.70
2022-12-10T09:49:44.266Z,63.60
2022-12-10T09:52:19.051Z,63.60
2022-12-10T09:54:53.335Z,63.60
2022-12-10T09:57:39.405Z,63.50
2022-12-10T10:00:26.301Z,63.50
2022-12-10T10:03:00.101Z,63.50
2022-12-10T10:05:33.848Z,63.40
2022-12-10T10:08:04.733Z,63.50
2022-12-10T10:10:34.603Z,63.60
2022-12-10T10:13:09.889Z,63.50
2022-12-10T10:15:41.026Z,63.40
2022-12-10T10:18:39.168Z,63.60
2022-12-10T10:21:34.743Z,63.40
2022-12-10T10:24:07.063Z,63.40
2022-12-10T10:26:36.908Z,63.50
2022-12-10T10:29:07.807Z,63.50
2022-12-10T10:31:36.342Z,63.50
2022-12-10T10:34:23.300Z,63.40
2022-12-10T10:36:58.116Z,63.40
2022-12-10T10:39:30.680Z,63.40
2022-12-10T10:41:59.816Z,63.40
2022-12-10T10:44:36.210Z,63.40
2022-12-10T10:47:03.395Z,63.30
2022-12-10T10:49:34.805Z,63.40
2022-12-10T10:52:14.235Z,63.40
2022-12-10T10:54:43.633Z,63.30
2022-12-10T10:57:34.057Z,63.40
2022-12-10T11:00:20.865Z,63.60
2022-12-10T11:02:48.068Z,63.50
2022-12-10T11:05:18.086Z,63.70
2022-12-10T11:07:45.066Z,63.70
2022-12-10T11:10:19.451Z,63.70
2022-12-10T11:13:05.349Z,63.70
2022-12-10T11:15:41.091Z,63.80
2022-12-10T11:18:44.435Z,63.70
2022-12-10T11:21:14.240Z,63.50
2022-12-10T11:23:44.164Z,63.40
2022-12-10T11:26:42.167Z,63.70
2022-12-10T11:29:24.611Z,63.80
2022-12-10T11:32:18.540Z,63.70
2022-12-10T11:35:10.965Z,63.90
2022-12-10T11:37:52.004Z,63.80
2022-12-10T11:40:27.622Z,63.90
2022-12-10T11:43:13.008Z,63.90
2022-12-10T11:46:15.927Z,64.00
2022-12-10T11:49:21.975Z,63.90
2022-12-10T11:52:10.432Z,64.10
2022-12-10T11:54:52.674Z,63.90
2022-12-10T11:57:47.611Z,63.90
2022-12-10T12:00:14.430Z,64.00
2022-12-10T12:02:50.123Z,64.00
2022-12-10T12:05:25.828Z,64.10
2022-12-10T12:08:27.517Z,64.40
2022-12-10T12:11:00.500Z,64.40
2022-12-10T12:13:47.460Z,64.50
2022-12-10T12:16:44.523Z,64.50
2022-12-10T12:19:41.144Z,64.40
2022-12-10T12:22:35.640Z,64.40
2022-12-10T12:25:27.929Z,64.40
2022-12-10T12:28:01.249Z,64.40
2022-12-10T12:30:28.608Z,64.50
2022-12-10T12:33:27.373Z,64.60
2022-12-10T12:36:00.747Z,65.40
2022-12-10T12:38:27.530Z,64.60
2022-12-10T12:41:07.612Z,64.40
2022-12-10T12:43:37.559Z,64.50
2022-12-10T12:46:17.102Z,64.60
2022-12-10T12:49:30.314Z,64.60
2022-12-10T12:52:17.191Z,64.60
2022-12-10T12:54:44.495Z,64.70
2022-12-10T12:57:23.325Z,64.70
2022-12-10T12:59:53.010Z,64.80
2022-12-10T13:02:51.728Z,64.90
2022-12-10T13:05:36.299Z,64.90
2022-12-10T13:08:21.433Z,65.00
2022-12-10T13:10:53.177Z,65.00
2022-12-10T13:13:26.040Z,65.00
2022-12-10T13:15:53.346Z,65.00
2022-12-10T13:18:39.515Z,64.90
2022-12-10T13:21:30.165Z,65.00
2022-12-10T13:24:13.646Z,65.00
2022-12-10T13:27:03.488Z,65.00
2022-12-10T13:29:42.516Z,64.90
2022-12-10T13:32:18.023Z,64.90
2022-12-10T13:34:45.401Z,65.00
2022-12-10T13:37:27.378Z,64.90
2022-12-10T13:40:00.679Z,65.00
2022-12-10T13:42:50.774Z,64.80
2022-12-10T13:45:23.319Z,64.90
2022-12-10T13:48:15.212Z,64.80
2022-12-10T13:51:00.528Z,64.90
2022-12-10T13:53:53.239Z,65.00
2022-12-10T13:57:05.243Z,65.00
2022-12-10T13:59:55.393Z,65.00
2022-12-10T14:02:44.356Z,65.00
2022-12-10T14:05:48.841Z,65.10
2022-12-10T14:08:20.803Z,65.00
2022-12-10T14:10:48.680Z,65.00
2022-12-10T14:13:19.891Z,65.00
2022-12-10T14:15:56.681Z,65.00
2022-12-10T14:18:24.679Z,65.00
2022-12-10T14:20:54.357Z,65.00
2022-12-10T14:23:36.290Z,65.10
2022-12-10T14:26:17.660Z,65.10
2022-12-10T14:28:56.274Z,65.10
2022-12-10T14:31:29.063Z,65.30
2022-12-10T14:34:01.834Z,65.30
2022-12-10T14:36:44.211Z,65.30
2022-12-10T14:39:20.421Z,65.20
2022-12-10T14:41:51.019Z,65.40
2022-12-10T14:44:19.276Z,65.30
2022-12-10T14:46:49.109Z,65.40
2022-12-10T14:49:27.374Z,65.50
2022-12-10T14:51:57.388Z,65.50
2022-12-10T14:54:35.340Z,65.40
2022-12-10T14:57:09.406Z,65.40
2022-12-10T14:59:57.916Z,65.60
2022-12-10T15:02:38.999Z,65.50
2022-12-10T15:05:23.349Z,65.60
2022-12-10T15:07:58.110Z,65.50
2022-12-10T15:10:47.235Z,65.50
2022-12-10T15:13:27.192Z,65.70
2022-12-10T15:15:57.195Z,65.50
2022-12-10T15:18:38.113Z,65.60
2022-12-10T15:21:06.802Z,65.60
2022-12-10T15:23:36.239Z,65.60
2022-12-10T15:26:12.700Z,65.70
2022-12-10T15:28:41.380Z,65.60
2022-12-10T15:31:27.790Z,65.40
2022-12-10T15:33:59.802Z,65.50
2022-12-10T15:36:30.377Z,65.80
2022-12-10T15:38:57.914Z,65.90
2022-12-10T15:41:43.585Z,66.00
2022-12-10T15:44:35.635Z,66.20
2022-12-10T15:47:15.639Z,66.00
2022-12-10T15:49:42.852Z,66.00
2022-12-10T15:52:25.467Z,66.10
2022-12-10T15:54:54.032Z,66.00
2022-12-10T15:57:33.800Z,66.10
2022-12-10T16:00:07.289Z,66.10
2022-12-10T16:03:05.287Z,66.10
2022-12-10T16:05:35.949Z,66.20
2022-12-10T16:08:12.181Z,66.30
2022-12-10T16:10:39.622Z,66.40
2022-12-10T16:13:12.317Z,66.30
2022-12-10T16:15:52.357Z,67.00
2022-12-10T16:18:19.644Z,66.30
2022-12-10T16:20:46.855Z,66.20
2022-12-10T16:23:15.236Z,66.30
2022-12-10T16:25:45.213Z,66.20
2022-12-10T16:28:14.846Z,66.20
2022-12-10T16:30:55.879Z,66.20
2022-12-10T16:33:25.454Z,66.40
2022-12-10T16:35:54.027Z,66.40
2022-12-10T16:38:21.470Z,66.60
2022-12-10T16:40:49.103Z,66.50
2022-12-10T16:43:18.482Z,66.90
2022-12-10T16:45:45.805Z,66.50
2022-12-10T16:48:13.177Z,66.40
2022-12-10T16:50:41.753Z,66.40
2022-12-10T16:53:28.912Z,66.60
2022-12-10T16:55:57.463Z,66.80
2022-12-10T16:58:25.284Z,66.80
2022-12-10T17:00:54.101Z,66.70
2022-12-10T17:03:24.491Z,66.80
2022-12-10T17:06:00.027Z,66.80
2022-12-10T17:08:28.698Z,66.80
2022-12-10T17:11:15.609Z,66.70
2022-12-10T17:13:44.478Z,66.70
2022-12-10T17:16:15.362Z,66.80
2022-12-10T17:18:42.389Z,66.60
2022-12-10T17:21:09.258Z,66.50
2022-12-10T17:23:36.107Z,66.60
2022-12-10T17:26:03.048Z,66.50
2022-12-10T17:28:31.961Z,66.40
2022-12-10T17:30:59.436Z,66.50
2022-12-10T17:33:26.315Z,66.50
2022-12-10T17:35:54.958Z,66.50
2022-12-10T17:38:24.698Z,66.50
2022-12-10T17:40:52.796Z,66.50
2022-12-10T17:43:19.819Z,66.40
2022-12-10T17:45:47.062Z,66.40
2022-12-10T17:48:16.265Z,66.50
2022-12-10T17:50:45.746Z,66.40
2022-12-10T17:53:18.800Z,66.40
2022-12-10T17:55:56.401Z,66.40
2022-12-10T17:58:24.144Z,66.40
2022-12-10T18:00:52.301Z,66.40
2022-12-10T18:03:19.888Z,66.50
2022-12-10T18:05:47.090Z,66.40
2022-12-10T18:08:23.845Z,66.50
2022-12-10T18:10:53.878Z,66.50
2022-12-10T18:13:22.066Z,66.50
2022-12-10T18:15:49.305Z,66.50
2022-12-10T18:18:16.391Z,66.60
2022-12-10T18:20:43.399Z,66.40
2022-12-10T18:23:11.966Z,66.60
2022-12-10T18:25:40.856Z,66.70
2022-12-10T18:28:31.071Z,66.60
2022-12-10T18:31:02.420Z,66.60
2022-12-10T18:33:38.407Z,66.60
2022-12-10T18:36:05.566Z,66.60
2022-12-10T18:38:32.594Z,66.50
2022-12-10T18:40:59.426Z,66.50
2022-12-10T18:43:26.470Z,66.40
2022-12-10T18:45:53.336Z,66.60
2022-12-10T18:48:20.211Z,66.70
2022-12-10T18:50:47.205Z,66.70
2022-12-10T18:53:14.047Z,66.70
2022-12-10T18:55:40.920Z,66.70
2022-12-10T18:58:10.134Z,66.60
2022-12-10T19:00:37.338Z,66.50
2022-12-10T19:03:04.803Z,66.60
2022-12-10T19:05:31.673Z,66.70
2022-12-10T19:07:58.621Z,66.80
2022-12-10T19:10:26.322Z,66.90
2022-12-10T19:12:53.236Z,66.80
2022-12-10T19:15:21.402Z,66.90
2022-12-10T19:17:49.496Z,66.90
2022-12-10T19:20:22.833Z,66.80
2022-12-10T19:22:50.576Z,66.70
2022-12-10T19:25:18.049Z,66.80
2022-12-10T19:27:45.437Z,66.90
2022-12-10T19:30:24.813Z,66.80
2022-12-10T19:32:52.070Z,66.60
2022-12-10T19:35:22.034Z,66.70
2022-12-10T19:37:56.042Z,66.70
2022-12-10T19:40:43.196Z,66.60
2022-12-10T19:43:14.090Z,66.70
2022-12-10T19:45:41.352Z,66.70
2022-12-10T19:48:10.147Z,66.70
2022-12-10T19:50:37.142Z,66.70
2022-12-10T19:53:04.974Z,66.80
2022-12-10T19:55:32.011Z,66.90
2022-12-10T19:57:59.220Z,66.80
2022-12-10T20:00:33.373Z,66.70
2022-12-10T20:03:00.378Z,66.90
2022-12-10T20:05:27.691Z,67.00
2022-12-10T20:07:54.704Z,67.00
2022-12-10T20:10:29.831Z,66.80
2022-12-10T20:12:56.988Z,66.80
2022-12-10T20:15:25.823Z,66.70
2022-12-10T20:17:53.426Z,66.80
2022-12-10T20:20:27.359Z,66.90
2022-12-10T20:22:55.314Z,66.90
2022-12-10T20:25:23.542Z,66.70
2022-12-10T20:27:50.991Z,66.50
2022-12-10T20:30:28.421Z,66.50
2022-12-10T20:32:55.979Z,66.70
2022-12-10T20:35:24.139Z,66.70
2022-12-10T20:37:51.396Z,66.50
2022-12-10T20:40:31.900Z,66.60
2022-12-10T20:42:59.934Z,66.50
2022-12-10T20:45:26.868Z,66.50
2022-12-10T20:47:53.744Z,66.70
2022-12-10T20:50:21.018Z,66.80
2022-12-10T20:52:48.030Z,66.90
2022-12-10T20:55:16.219Z,66.90
2022-12-10T20:57:43.188Z,66.70
2022-12-10T21:00:17.055Z,66.60
2022-12-10T21:02:44.895Z,66.70
2022-12-10T21:05:13.478Z,66.60
2022-12-10T21:07:40.776Z,66.60
2022-12-10T21:10:28.746Z,66.60
2022-12-10T21:12:55.561Z,66.70
2022-12-10T21:15:24.040Z,66.60
2022-12-10T21:17:51.146Z,66.50
2022-12-10T21:20:18.429Z,67.30
2022-12-10T21:22:45.654Z,66.40
2022-12-10T21:25:13.634Z,66.50
2022-12-10T21:27:41.301Z,66.40
2022-12-10T21:30:08.926Z,66.30
2022-12-10T21:32:35.690Z,66.50
2022-12-10T21:35:02.471Z,66.50
2022-12-10T21:37:29.301Z,66.40
2022-12-10T21:39:57.609Z,66.40
2022-12-10T21:42:42.787Z,66.40
2022-12-10T21:45:09.937Z,66.40
2022-12-10T21:47:37.019Z,66.40
2022-12-10T21:50:03.965Z,66.40
2022-12-10T21:52:30.848Z,66.40
2022-12-10T21:54:57.663Z,66.50
2022-12-10T21:57:24.520Z,66.40
2022-12-10T21:59:51.818Z,66.30
2022-12-10T22:02:18.682Z,66.20
2022-12-10T22:04:45.824Z,66.10
2022-12-10T22:07:12.640Z,66.20
2022-12-10T22:09:39.442Z,66.20
2022-12-10T22:12:06.461Z,66.30
2022-12-10T22:14:33.341Z,66.40
2022-12-10T22:17:00.196Z,66.30
2022-12-10T22:19:27.268Z,66.30
2022-12-10T22:21:54.133Z,66.20
2022-12-10T22:24:20.927Z,66.20
2022-12-10T22:26:47.772Z,66.40
2022-12-10T22:29:14.666Z,66.50
2022-12-10T22:31:41.613Z,66.60
2022-12-10T22:34:08.587Z,66.60
2022-12-10T22:36:35.448Z,66.60
2022-12-10T22:39:02.310Z,66.60
2022-12-10T22:41:29.222Z,66.70
2022-12-10T22:43:56.250Z,66.70
2022-12-10T22:46:23.144Z,66.70
2022-12-10T22:48:50.814Z,66.70
2022-12-10T22:51:18.028Z,66.70
2022-12-10T22:53:45.165Z,66.60
2022-12-10T22:56:13.834Z,66.70
2022-12-10T22:58:41.096Z,66.70
2022-12-10T23:01:16.323Z,66.80
2022-12-10T23:03:43.453Z,66.60
2022-12-10T23:06:11.322Z,66.50
2022-12-10T23:08:38.557Z,66.70
2022-12-10T23:11:06.913Z,66.70
2022-12-10T23:13:38.128Z,66.70
2022-12-10T23:16:07.966Z,66.70
2022-12-10T23:18:35.440Z,66.40
2022-12-10T23:21:02.383Z,66.20
2022-12-10T23:23:29.453Z,66.30
2022-12-10T23:25:56.514Z,66.10
2022-12-10T23:28:23.329Z,65.90
2022-12-10T23:30:58.697Z,65.90
2022-12-10T23:33:25.662Z,66.00
2022-12-10T23:35:52.636Z,66.00
2022-12-10T23:38:19.494Z,66.00
2022-12-10T23:40:46.277Z,65.70
2022-12-10T23:43:13.630Z,65.90
2022-12-10T23:45:41.573Z,65.90
2022-12-10T23:48:09.007Z,65.90
2022-12-10T23:50:36.835Z,65.80
2022-12-10T23:53:05.331Z,65.60
2022-12-10T23:55:32.329Z,65.60
2022-12-10T23:57:59.274Z,65.50
